createdAt,value
2022-09-27T00:01:48.911Z,11.22
2022-09-27T00:04:15.536Z,11.19
2022-09-27T00:06:42.063Z,11.17
2022-09-27T00:09:10.108Z,11.16
2022-09-27T00:11:39.422Z,11.15
2022-09-27T00:14:07.114Z,11.13
2022-09-27T00:16:37.308Z,11.10
2022-09-27T00:19:13.407Z,11.08
2022-09-27T00:21:40.405Z,11.04
2022-09-27T00:24:06.993Z,11.02
2022-09-27T00:26:33.502Z,11.02
2022-09-27T00:28:59.973Z,11.03
2022-09-27T00:31:29.940Z,11.03
2022-09-27T00:34:00.421Z,11.01
2022-09-27T00:36:28.351Z,10.99
2022-09-27T00:38:56.470Z,10.99
2022-09-27T00:41:26.311Z,10.97
2022-09-27T00:44:02.281Z,10.92
2022-09-27T00:46:35.554Z,10.90
2022-09-27T00:49:19.675Z,10.88
2022-09-27T00:51:51.423Z,10.84
2022-09-27T00:54:20.595Z,10.82
2022-09-27T00:56:49.164Z,10.80
2022-09-27T00:59:46.420Z,10.79
2022-09-27T01:02:13.714Z,10.79
2022-09-27T01:04:42.443Z,10.77
2022-09-27T01:07:08.900Z,10.74
2022-09-27T01:09:35.696Z,10.75
2022-09-27T01:12:26.252Z,10.71
2022-09-27T01:15:24.380Z,10.69
2022-09-27T01:18:31.043Z,10.67
2022-09-27T01:21:19.441Z,10.67
2022-09-27T01:24:12.530Z,10.62
2022-09-27T01:26:51.192Z,10.63
2022-09-27T01:29:20.568Z,10.61
2022-09-27T01:31:59.225Z,10.59
2022-09-27T01:34:37.598Z,10.59
2022-09-27T01:37:45.386Z,10.59
2022-09-27T01:40:32.315Z,10.58
2022-09-27T01:43:04.084Z,10.57
2022-09-27T01:45:48.976Z,10.57
2022-09-27T01:48:29.165Z,10.55
2022-09-27T01:51:04.371Z,10.55
2022-09-27T01:53:35.914Z,10.55
2022-09-27T01:56:10.921Z,10.50
2022-09-27T01:58:52.580Z,10.49
2022-09-27T02:01:22.313Z,10.47
2022-09-27T02:03:50.864Z,10.42
2022-09-27T02:06:24.614Z,10.42
2022-09-27T02:09:14.217Z,10.44
2022-09-27T02:11:45.492Z,10.44
2022-09-27T02:14:33.235Z,10.44
2022-09-27T02:17:09.387Z,10.45
2022-09-27T02:19:44.758Z,10.47
2022-09-27T02:22:38.405Z,10.48
2022-09-27T02:25:23.039Z,10.47
2022-09-27T02:27:56.242Z,10.41
2022-09-27T02:30:23.002Z,10.36
2022-09-27T02:32:49.538Z,10.33
2022-09-27T02:35:18.716Z,10.32
2022-09-27T02:37:45.556Z,10.30
2022-09-27T02:40:12.494Z,10.28
2022-09-27T02:42:42.490Z,10.25
2022-09-27T02:45:10.436Z,10.23
2022-09-27T02:48:27.527Z,10.21
2022-09-27T02:51:13.111Z,10.18
2022-09-27T02:54:12.194Z,10.12
2022-09-27T02:56:49.153Z,10.08
2022-09-27T02:59:25.041Z,10.04
2022-09-27T03:02:15.077Z,10.00
2022-09-27T03:04:56.981Z,9.95
2022-09-27T03:07:23.561Z,9.93
2022-09-27T03:09:53.012Z,9.89
2022-09-27T03:12:25.905Z,9.85
2022-09-27T03:14:57.425Z,9.83
2022-09-27T03:17:25.241Z,9.79
2022-09-27T03:19:51.790Z,9.77
2022-09-27T03:22:18.730Z,9.76
2022-09-27T03:24:45.683Z,9.73
2022-09-27T03:27:12.662Z,9.71
2022-09-27T03:29:39.162Z,9.68
2022-09-27T03:32:05.718Z,9.66
2022-09-27T03:34:32.271Z,9.64
2022-09-27T03:36:59.035Z,9.63
2022-09-27T03:39:25.713Z,9.60
2022-09-27T03:41:52.381Z,9.60
2022-09-27T03:44:18.993Z,9.56
2022-09-27T03:46:45.550Z,9.53
2022-09-27T03:49:12.081Z,9.50
2022-09-27T03:51:38.535Z,9.48
2022-09-27T03:54:05.027Z,9.47
2022-09-27T03:56:31.618Z,9.45
2022-09-27T03:58:58.106Z,9.42
2022-09-27T04:01:26.127Z,9.39
2022-09-27T04:03:52.746Z,9.37
2022-09-27T04:06:19.741Z,9.33
2022-09-27T04:08:47.459Z,9.31
2022-09-27T04:11:15.276Z,9.31
2022-09-27T04:13:41.820Z,9.29
2022-09-27T04:16:08.440Z,9.27
2022-09-27T04:18:35.089Z,9.27
2022-09-27T04:21:02.159Z,9.28
2022-09-27T04:23:30.183Z,9.28
2022-09-27T04:25:57.101Z,9.28
2022-09-27T04:28:23.642Z,9.28
2022-09-27T04:30:50.708Z,9.28
2022-09-27T04:33:17.344Z,9.29
2022-09-27T04:36:02.616Z,9.27
2022-09-27T04:38:29.261Z,9.26
2022-09-27T04:40:56.012Z,9.28
2022-09-27T04:43:22.689Z,9.31
2022-09-27T04:45:49.309Z,9.31
2022-09-27T04:48:15.925Z,9.35
2022-09-27T04:50:42.465Z,9.37
2022-09-27T04:53:15.918Z,9.40
2022-09-27T04:55:47.373Z,9.43
2022-09-27T04:58:14.185Z,9.44
2022-09-27T05:00:42.866Z,9.45
2022-09-27T05:03:09.452Z,9.46
2022-09-27T05:05:35.997Z,9.46
2022-09-27T05:08:02.445Z,9.50
2022-09-27T05:10:28.989Z,9.48
2022-09-27T05:12:55.447Z,9.48
2022-09-27T05:15:22.004Z,9.45
2022-09-27T05:17:51.535Z,9.44
2022-09-27T05:20:19.332Z,9.42
2022-09-27T05:22:46.228Z,9.38
2022-09-27T05:25:13.010Z,9.34
2022-09-27T05:27:39.582Z,9.31
2022-09-27T05:30:08.134Z,9.28
2022-09-27T05:32:36.075Z,9.24
2022-09-27T05:35:02.593Z,9.22
2022-09-27T05:37:31.472Z,9.19
2022-09-27T05:39:57.928Z,9.17
2022-09-27T05:42:24.571Z,9.17
2022-09-27T05:44:51.171Z,9.15
2022-09-27T05:47:17.958Z,9.15
2022-09-27T05:49:44.468Z,9.16
2022-09-27T05:52:15.036Z,9.24
2022-09-27T05:54:43.279Z,9.29
2022-09-27T05:57:09.794Z,9.32
2022-09-27T05:59:36.438Z,9.31
2022-09-27T06:02:03.095Z,9.31
2022-09-27T06:04:29.823Z,9.32
2022-09-27T06:06:59.037Z,9.33
2022-09-27T06:09:27.400Z,9.36
2022-09-27T06:11:53.888Z,9.37
2022-09-27T06:14:20.879Z,9.42
2022-09-27T06:16:48.152Z,9.47
2022-09-27T06:19:15.244Z,9.52
2022-09-27T06:21:41.960Z,9.63
2022-09-27T06:24:08.522Z,10.01
2022-09-27T06:26:35.146Z,10.50
2022-09-27T06:29:01.985Z,10.72
2022-09-27T06:31:28.612Z,11.03
2022-09-27T06:33:55.144Z,11.21
2022-09-27T06:36:21.709Z,11.26
2022-09-27T06:38:49.146Z,11.25
2022-09-27T06:41:16.432Z,11.17
2022-09-27T06:43:43.062Z,11.16
2022-09-27T06:46:09.885Z,11.12
2022-09-27T06:48:38.497Z,11.11
2022-09-27T06:51:05.885Z,11.22
2022-09-27T06:53:33.564Z,11.37
2022-09-27T06:56:01.203Z,11.48
2022-09-27T06:58:47.627Z,11.68
2022-09-27T07:01:14.684Z,11.90
2022-09-27T07:03:43.285Z,12.30
2022-09-27T07:06:29.068Z,12.60
2022-09-27T07:08:55.645Z,12.59
2022-09-27T07:11:23.540Z,12.71
2022-09-27T07:13:51.906Z,12.96
2022-09-27T07:16:19.055Z,12.92
2022-09-27T07:18:48.438Z,12.75
2022-09-27T07:21:16.322Z,12.42
2022-09-27T07:23:42.781Z,12.24
2022-09-27T07:26:10.635Z,12.12
2022-09-27T07:28:37.337Z,12.02
2022-09-27T07:31:04.462Z,11.95
2022-09-27T07:33:31.725Z,11.99
2022-09-27T07:35:58.352Z,12.10
2022-09-27T07:38:25.127Z,12.11
2022-09-27T07:40:52.115Z,12.09
2022-09-27T07:43:19.599Z,12.15
2022-09-27T07:45:46.983Z,12.23
2022-09-27T07:48:15.754Z,12.25
2022-09-27T07:50:42.465Z,12.24
2022-09-27T07:53:12.741Z,12.23
2022-09-27T07:55:39.869Z,12.20
2022-09-27T07:58:11.606Z,12.16
2022-09-27T08:00:39.779Z,12.09
2022-09-27T08:03:16.215Z,12.05
2022-09-27T08:05:44.559Z,12.04
2022-09-27T08:08:11.543Z,12.08
2022-09-27T08:10:39.876Z,12.11
2022-09-27T08:13:06.397Z,12.17
2022-09-27T08:15:38.977Z,12.24
2022-09-27T08:18:07.544Z,12.29
2022-09-27T08:20:34.078Z,12.26
2022-09-27T08:23:00.612Z,12.27
2022-09-27T08:25:28.382Z,12.28
2022-09-27T08:27:59.676Z,12.27
2022-09-27T08:30:27.433Z,12.35
2022-09-27T08:32:58.260Z,12.45
2022-09-27T08:35:25.166Z,12.37
2022-09-27T08:37:56.879Z,12.31
2022-09-27T08:40:28.191Z,12.37
2022-09-27T08:43:03.549Z,12.45
2022-09-27T08:45:42.926Z,12.53
2022-09-27T08:48:10.434Z,12.66
2022-09-27T08:50:42.643Z,12.86
2022-09-27T08:53:31.135Z,13.03
2022-09-27T08:56:00.180Z,13.17
2022-09-27T08:58:36.418Z,13.22
2022-09-27T09:01:08.812Z,13.20
2022-09-27T09:03:38.780Z,13.23
2022-09-27T09:06:46.712Z,13.26
2022-09-27T09:09:18.813Z,13.25
2022-09-27T09:12:25.085Z,13.34
2022-09-27T09:14:54.277Z,13.47
2022-09-27T09:17:40.728Z,13.56
2022-09-27T09:20:26.926Z,13.61
2022-09-27T09:23:17.672Z,13.73
2022-09-27T09:25:55.037Z,13.67
2022-09-27T09:28:40.898Z,13.59
2022-09-27T09:31:16.538Z,13.60
2022-09-27T09:33:54.856Z,13.43
2022-09-27T09:36:26.452Z,13.44
2022-09-27T09:38:58.796Z,13.51
2022-09-27T09:41:29.741Z,13.63
2022-09-27T09:44:14.883Z,13.81
2022-09-27T09:46:46.075Z,13.85
2022-09-27T09:49:21.964Z,13.95
2022-09-27T09:51:58.655Z,13.98
2022-09-27T09:54:37.736Z,13.94
2022-09-27T09:57:23.786Z,13.95
2022-09-27T09:59:58.489Z,13.84
2022-09-27T10:02:39.909Z,13.83
2022-09-27T10:05:08.293Z,13.86
2022-09-27T10:07:38.684Z,13.83
2022-09-27T10:10:06.991Z,13.77
2022-09-27T10:12:36.091Z,13.70
2022-09-27T10:15:06.102Z,13.62
2022-09-27T10:17:42.283Z,13.47
2022-09-27T10:20:26.997Z,13.33
2022-09-27T10:22:59.307Z,13.14
2022-09-27T10:25:27.860Z,12.98
2022-09-27T10:27:56.448Z,12.93
2022-09-27T10:30:32.238Z,12.86
2022-09-27T10:33:04.642Z,12.81
2022-09-27T10:35:38.228Z,12.78
2022-09-27T10:38:22.725Z,12.69
2022-09-27T10:40:55.849Z,12.69
2022-09-27T10:43:33.836Z,12.83
2022-09-27T10:46:10.459Z,12.99
2022-09-27T10:48:39.327Z,13.09
2022-09-27T10:51:08.493Z,13.20
2022-09-27T10:54:00.295Z,13.36
2022-09-27T10:56:33.086Z,13.38
2022-09-27T10:59:01.528Z,13.38
2022-09-27T11:01:40.925Z,13.35
2022-09-27T11:04:07.485Z,13.31
2022-09-27T11:06:38.263Z,13.25
2022-09-27T11:09:31.461Z,13.16
2022-09-27T11:12:13.160Z,13.15
2022-09-27T11:14:40.664Z,13.13
2022-09-27T11:17:16.225Z,13.07
2022-09-27T11:20:14.305Z,13.07
2022-09-27T11:22:55.337Z,13.01
2022-09-27T11:25:46.643Z,12.99
2022-09-27T11:28:22.660Z,13.17
2022-09-27T11:31:14.438Z,13.34
2022-09-27T11:33:58.670Z,13.36
2022-09-27T11:36:56.199Z,13.33
2022-09-27T11:40:03.824Z,13.32
2022-09-27T11:43:07.316Z,13.27
2022-09-27T11:46:15.492Z,13.31
2022-09-27T11:49:04.956Z,13.34
2022-09-27T11:52:16.786Z,13.45
2022-09-27T11:54:49.096Z,13.52
2022-09-27T11:57:26.414Z,13.64
2022-09-27T12:00:02.226Z,13.71
2022-09-27T12:02:59.836Z,13.71
2022-09-27T12:05:58.297Z,13.60
2022-09-27T12:08:44.427Z,13.46
2022-09-27T12:11:26.573Z,13.25
2022-09-27T12:13:59.334Z,12.99
2022-09-27T12:16:27.829Z,12.64
2022-09-27T12:18:55.979Z,12.45
2022-09-27T12:21:23.105Z,12.33
2022-09-27T12:23:53.886Z,12.31
2022-09-27T12:26:26.301Z,12.35
2022-09-27T12:28:57.348Z,12.38
2022-09-27T12:31:30.412Z,12.41
2022-09-27T12:34:15.166Z,12.44
2022-09-27T12:36:53.343Z,12.56
2022-09-27T12:39:29.094Z,12.66
2022-09-27T12:42:02.321Z,12.82
2022-09-27T12:44:38.817Z,12.99
2022-09-27T12:47:29.709Z,13.16
2022-09-27T12:50:24.000Z,13.29
2022-09-27T12:52:56.057Z,13.46
2022-09-27T12:55:37.210Z,13.58
2022-09-27T12:58:38.371Z,13.76
2022-09-27T13:01:23.985Z,13.87
2022-09-27T13:04:17.849Z,13.88
2022-09-27T13:06:58.933Z,13.96
2022-09-27T13:09:40.607Z,14.14
2022-09-27T13:12:15.049Z,14.21
2022-09-27T13:14:57.363Z,14.03
2022-09-27T13:17:40.979Z,14.04
2022-09-27T13:20:31.006Z,13.92
2022-09-27T13:22:58.450Z,13.75
2022-09-27T13:25:58.192Z,13.66
2022-09-27T13:28:33.648Z,13.61
2022-09-27T13:31:16.382Z,13.56
2022-09-27T13:33:53.797Z,13.54
2022-09-27T13:36:33.759Z,13.51
2022-09-27T13:39:06.398Z,13.44
2022-09-27T13:41:41.493Z,13.22
2022-09-27T13:44:29.790Z,13.11
2022-09-27T13:47:11.565Z,13.12
2022-09-27T13:49:42.984Z,13.13
2022-09-27T13:52:20.653Z,13.22
2022-09-27T13:54:51.434Z,13.34
2022-09-27T13:57:50.060Z,13.44
2022-09-27T14:00:25.716Z,13.51
2022-09-27T14:03:15.509Z,13.60
2022-09-27T14:05:51.340Z,13.53
2022-09-27T14:08:29.683Z,13.40
2022-09-27T14:10:57.302Z,13.28
2022-09-27T14:13:25.755Z,13.30
2022-09-27T14:15:54.572Z,13.32
2022-09-27T14:18:22.364Z,13.38
2022-09-27T14:20:52.699Z,13.43
2022-09-27T14:23:23.920Z,13.43
2022-09-27T14:25:53.282Z,13.46
2022-09-27T14:28:27.517Z,13.49
2022-09-27T14:31:07.084Z,13.53
2022-09-27T14:33:34.628Z,13.56
2022-09-27T14:36:23.731Z,13.60
2022-09-27T14:38:50.605Z,13.60
2022-09-27T14:41:17.326Z,13.60
2022-09-27T14:43:45.964Z,13.49
2022-09-27T14:46:31.003Z,13.35
2022-09-27T14:48:59.276Z,13.23
2022-09-27T14:51:32.109Z,13.17
2022-09-27T14:54:05.554Z,13.09
2022-09-27T14:56:35.129Z,12.97
2022-09-27T14:59:27.020Z,13.00
2022-09-27T15:01:54.498Z,12.98
2022-09-27T15:04:23.827Z,12.96
2022-09-27T15:06:51.218Z,13.01
2022-09-27T15:09:18.666Z,13.01
2022-09-27T15:11:51.574Z,13.07
2022-09-27T15:14:22.515Z,13.15
2022-09-27T15:16:52.576Z,13.17
2022-09-27T15:19:27.950Z,13.19
2022-09-27T15:21:55.297Z,13.17
2022-09-27T15:24:45.336Z,13.16
2022-09-27T15:27:25.943Z,13.13
2022-09-27T15:29:58.408Z,13.10
2022-09-27T15:32:27.653Z,13.13
2022-09-27T15:34:55.757Z,13.10
2022-09-27T15:37:33.780Z,13.05
2022-09-27T15:40:19.630Z,13.02
2022-09-27T15:43:01.062Z,12.98
2022-09-27T15:45:33.777Z,12.95
2022-09-27T15:48:14.066Z,12.91
2022-09-27T15:50:41.398Z,12.90
2022-09-27T15:53:09.457Z,12.80
2022-09-27T15:55:45.109Z,12.73
2022-09-27T15:58:19.272Z,12.68
2022-09-27T16:00:54.395Z,12.69
2022-09-27T16:03:21.527Z,12.73
2022-09-27T16:05:48.466Z,12.60
2022-09-27T16:08:15.466Z,12.54
2022-09-27T16:10:47.412Z,12.52
2022-09-27T16:13:13.892Z,12.46
2022-09-27T16:15:40.950Z,12.41
2022-09-27T16:18:08.044Z,12.40
2022-09-27T16:20:34.640Z,12.38
2022-09-27T16:23:01.912Z,12.39
2022-09-27T16:25:28.844Z,12.34
2022-09-27T16:28:00.145Z,12.30
2022-09-27T16:30:27.709Z,12.31
2022-09-27T16:32:54.647Z,12.26
2022-09-27T16:35:22.791Z,12.21
2022-09-27T16:37:49.669Z,12.15
2022-09-27T16:40:19.728Z,12.15
2022-09-27T16:42:49.667Z,12.10
2022-09-27T16:45:19.266Z,12.11
2022-09-27T16:47:46.625Z,12.10
2022-09-27T16:50:33.037Z,12.09
2022-09-27T16:53:00.389Z,12.09
2022-09-27T16:55:28.758Z,12.05
2022-09-27T16:57:58.783Z,11.94
2022-09-27T17:00:25.832Z,11.86
2022-09-27T17:02:53.077Z,11.82
2022-09-27T17:05:20.302Z,11.75
2022-09-27T17:07:50.968Z,11.69
2022-09-27T17:10:19.262Z,11.68
2022-09-27T17:12:47.349Z,11.65
2022-09-27T17:15:14.793Z,11.63
2022-09-27T17:17:41.944Z,11.54
2022-09-27T17:20:08.449Z,11.53
2022-09-27T17:22:34.971Z,11.52
2022-09-27T17:25:01.715Z,11.50
2022-09-27T17:27:28.539Z,11.48
2022-09-27T17:29:55.789Z,11.46
2022-09-27T17:32:24.626Z,11.42
2022-09-27T17:34:52.257Z,11.39
2022-09-27T17:37:19.299Z,11.34
2022-09-27T17:39:46.263Z,11.30
2022-09-27T17:42:12.891Z,11.25
2022-09-27T17:44:39.782Z,11.24
2022-09-27T17:47:25.090Z,11.21
2022-09-27T17:50:10.381Z,11.21
2022-09-27T17:52:37.525Z,11.20
2022-09-27T17:55:05.452Z,11.18
2022-09-27T17:57:31.982Z,11.18
2022-09-27T17:59:58.657Z,11.17
2022-09-27T18:02:26.431Z,11.14
2022-09-27T18:04:53.020Z,11.11
2022-09-27T18:07:19.963Z,11.09
2022-09-27T18:09:46.907Z,11.07
2022-09-27T18:12:13.715Z,11.06
2022-09-27T18:14:40.435Z,11.05
2022-09-27T18:17:07.136Z,11.05
2022-09-27T18:19:33.975Z,11.05
2022-09-27T18:22:00.859Z,11.02
2022-09-27T18:24:27.861Z,11.01
2022-09-27T18:26:55.865Z,10.98
2022-09-27T18:29:22.949Z,10.98
2022-09-27T18:31:49.834Z,10.98
2022-09-27T18:34:18.308Z,10.97
2022-09-27T18:36:45.253Z,10.95
2022-09-27T18:39:19.076Z,10.92
2022-09-27T18:41:49.083Z,10.91
2022-09-27T18:44:17.037Z,10.87
2022-09-27T18:46:43.822Z,10.85
2022-09-27T18:49:12.686Z,10.82
2022-09-27T18:51:44.775Z,10.80
2022-09-27T18:54:20.365Z,10.78
2022-09-27T18:56:48.706Z,10.77
2022-09-27T18:59:17.170Z,10.75
2022-09-27T19:01:48.057Z,10.73
2022-09-27T19:04:33.178Z,10.71
2022-09-27T19:06:59.751Z,10.70
2022-09-27T19:09:27.039Z,10.70
2022-09-27T19:12:12.247Z,10.64
2022-09-27T19:14:38.712Z,10.63
2022-09-27T19:22:35.653Z,10.61
2022-09-27T19:25:02.235Z,10.62
2022-09-27T19:27:31.019Z,10.63
2022-09-27T19:29:59.200Z,10.62
2022-09-27T19:32:26.213Z,10.63
2022-09-27T19:34:52.749Z,10.63
2022-09-27T19:37:19.243Z,10.62
2022-09-27T19:39:45.953Z,10.63
2022-09-27T19:42:14.094Z,10.61
2022-09-27T19:44:40.817Z,10.61
2022-09-27T19:47:08.911Z,10.61
2022-09-27T19:49:35.406Z,10.61
2022-09-27T19:52:04.507Z,10.59
2022-09-27T19:54:31.330Z,10.57
2022-09-27T19:56:57.854Z,10.58
2022-09-27T19:59:24.945Z,10.57
2022-09-27T20:01:51.609Z,10.56
2022-09-27T20:04:18.163Z,10.55
2022-09-27T20:06:45.977Z,10.52
2022-09-27T20:09:12.699Z,10.48
2022-09-27T20:11:39.337Z,10.46
2022-09-27T20:14:05.960Z,10.44
2022-09-27T20:16:32.573Z,10.41
2022-09-27T20:19:00.821Z,10.39
2022-09-27T20:21:32.772Z,10.40
2022-09-27T20:24:01.980Z,10.40
2022-09-27T20:26:30.403Z,10.39
2022-09-27T20:28:59.067Z,10.40
2022-09-27T20:31:29.116Z,10.39
2022-09-27T20:33:56.153Z,10.39
2022-09-27T20:36:28.997Z,10.39
2022-09-27T20:39:02.226Z,10.37
2022-09-27T20:41:40.782Z,10.37
2022-09-27T20:44:13.433Z,10.36
2022-09-27T20:46:41.311Z,10.32
2022-09-27T20:49:11.769Z,10.32
2022-09-27T20:51:40.962Z,10.31
2022-09-27T20:54:10.675Z,10.30
2022-09-27T20:56:40.728Z,10.29
2022-09-27T20:59:15.054Z,10.28
2022-09-27T21:01:44.052Z,10.28
2022-09-27T21:04:12.869Z,10.29
2022-09-27T21:06:39.559Z,10.28
2022-09-27T21:09:07.945Z,10.26
2022-09-27T21:11:34.958Z,10.25
2022-09-27T21:14:01.775Z,10.23
2022-09-27T21:16:33.179Z,10.22
2022-09-27T21:19:00.208Z,10.22
2022-09-27T21:21:27.059Z,10.22
2022-09-27T21:23:59.212Z,10.21
2022-09-27T21:26:28.481Z,10.19
2022-09-27T21:28:57.196Z,10.17
2022-09-27T21:31:26.628Z,10.17
2022-09-27T21:33:55.842Z,10.18
2022-09-27T21:36:23.615Z,10.19
2022-09-27T21:38:50.747Z,10.21
2022-09-27T21:41:17.968Z,10.23
2022-09-27T21:43:46.559Z,10.23
2022-09-27T21:46:17.342Z,10.23
2022-09-27T21:48:49.361Z,10.22
2022-09-27T21:51:22.261Z,10.21
2022-09-27T21:53:55.100Z,10.26
2022-09-27T21:56:23.300Z,10.27
2022-09-27T21:58:49.867Z,10.27
2022-09-27T22:01:22.025Z,10.28
2022-09-27T22:03:50.100Z,10.29
2022-09-27T22:06:26.406Z,10.27
2022-09-27T22:08:53.996Z,10.27
2022-09-27T22:11:23.212Z,10.28
2022-09-27T22:13:49.863Z,10.28
2022-09-27T22:16:18.381Z,10.29
2022-09-27T22:18:52.952Z,10.25
2022-09-27T22:21:26.044Z,10.24
2022-09-27T22:23:58.305Z,10.24
2022-09-27T22:26:27.732Z,10.25
2022-09-27T22:28:56.160Z,10.25
2022-09-27T22:31:23.452Z,10.25
2022-09-27T22:33:52.007Z,10.24
2022-09-27T22:36:18.570Z,10.25
2022-09-27T22:38:45.207Z,10.23
2022-09-27T22:41:12.355Z,10.24
2022-09-27T22:43:40.383Z,10.25
2022-09-27T22:46:07.125Z,10.26
2022-09-27T22:48:34.278Z,10.24
2022-09-27T22:51:01.144Z,10.21
2022-09-27T22:53:29.280Z,10.23
2022-09-27T22:56:20.275Z,10.25
2022-09-27T22:58:48.475Z,10.25
2022-09-27T23:01:16.878Z,10.26
2022-09-27T23:03:44.130Z,10.25
2022-09-27T23:06:11.641Z,10.24
2022-09-27T23:08:38.641Z,10.24
2022-09-27T23:11:11.200Z,10.23
2022-09-27T23:13:41.325Z,10.22
2022-09-27T23:16:10.970Z,10.22
2022-09-27T23:18:38.222Z,10.22
2022-09-27T23:21:09.535Z,10.23
2022-09-27T23:23:40.696Z,10.22
2022-09-27T23:26:10.274Z,10.20
2022-09-27T23:28:38.738Z,10.20
2022-09-27T23:31:17.234Z,10.20
2022-09-27T23:33:46.200Z,10.20
2022-09-27T23:36:16.158Z,10.22
2022-09-27T23:38:45.674Z,10.21
2022-09-27T23:41:13.848Z,10.20
2022-09-27T23:43:40.333Z,10.21
2022-09-27T23:46:08.969Z,10.23
2022-09-27T23:48:36.395Z,10.23
2022-09-27T23:51:05.087Z,10.23
2022-09-27T23:53:32.027Z,10.24
2022-09-27T23:56:03.926Z,10.23
2022-09-27T23:58:38.669Z,10.22
